Flight Track Log - Related Links

Times and Time Zones

All times are in EDT time to prevent confusion due to time zone crossing. See the N387W flight status page for this flight to view local times or setup timezone preferences in your user account.

Time Position Orientation Groundspeed Altitude Reporting Facility
EDT Latitude Longitude Course Direction KTS MPH feet Rate Location/Type
Sat 01:14:00 PM 44.5847 -90.1564 153° Southeast 111 128 3,600  Level Minneapolis Center
Sat 01:15:02 PM 44.5450 -90.1336 158° South 140 161 5,300 1,403 Climbing Minneapolis Center
Sat 01:16:04 PM 44.5072 -90.1122 158° South 147 169 6,500 1,258 Climbing Minneapolis Center
Sat 01:17:06 PM 44.4631 -90.0864 157° South 163 188 7,900 1,355 Climbing Minneapolis Center
Sat 01:18:08 PM 44.4186 -90.0603 157° South 164 189 9,300 1,403 Climbing Minneapolis Center
Sat 01:19:00 PM 44.6354 -90.1883 153° Southeast  Level FlightAware Approximate
Sat 01:19:10 PM 44.3733 -90.0342 158° South 166 191 10,800  Level Minneapolis Center
Sat 01:20:12 PM 44.3194 -90.0042 158° South 199 229 11,000 48 Climbing Minneapolis Center
Sat 01:21:14 PM 44.2564 -89.9678 158° South 231 266 10,900 -48 Descending Minneapolis Center
Sat 01:22:16 PM 44.1972 -89.9336 158° South 235 270 10,900  Level Minneapolis Center
Sat 01:23:18 PM 44.1319 -89.8967 158° South 239 275 10,900  Level Minneapolis Center
Sat 01:24:20 PM 44.0664 -89.8594 158° South 240 276 10,900 48 Level Minneapolis Center
Sat 01:25:22 PM 44.0006 -89.8219 158° South 241 277 11,000 48 Climbing Minneapolis Center
Sat 01:26:24 PM 43.9353 -89.7842 157° South 242 278 11,000  Level Minneapolis Center
Sat 01:27:26 PM 43.8700 -89.7472 158° South 242 278 11,000  Level Minneapolis Center
Sat 01:28:28 PM 43.8106 -89.7133 158° South 242 278 11,000  Level Minneapolis Center
Sat 01:29:30 PM 43.7469 -89.6781 158° South 239 275 11,000 -145 Level Minneapolis Center
Sat 01:30:32 PM 43.6831 -89.6419 158° South 238 274 10,700 -774 Descending Minneapolis Center
Sat 01:31:34 PM 43.6136 -89.6028 158° South 254 292 9,400 -1,306 Descending Minneapolis Center
Sat 01:32:36 PM 43.5478 -89.5647 157° South 248 285 8,000 -1,258 Descending Minneapolis Center
Sat 01:33:38 PM 43.4897 -89.5322 158° South 238 274 6,800 -1,210 Descending Minneapolis Center
Sat 01:34:40 PM 43.4289 -89.4975 157° South 228 262 5,500 -1,161 Descending Minneapolis Center
Sat 01:35:42 PM 43.3722 -89.4669 159° South 227 261 4,400 -774 Descending Minneapolis Center
Sat 01:36:44 PM 43.3181 -89.4422 162° South 218 251 3,900 -750 Descending Minneapolis Center
Sat 01:38:14 PM 43.2389 -89.4019 160° South 199 229 2,500 -789 Descending Chicago Center
Sat 01:39:16 PM 43.1939 -89.3803 161° South 187 215 1,900 -532 Descending Chicago Center
Sat 01:40:18 PM 43.1686 -89.3656 157° South 138 159 1,400 -339 Descending Chicago Center
Sat 01:41:20 PM 43.1481 -89.3472 147° Southeast 110 127 1,200 -194 Descending Chicago Center

Login

Don't have an account? Register now (free) for customized features, flight alerts, and more!